sensor_id;sensor_type;location;lat;lon;timestamp;pressure;altitude;pressure_sealevel;temperature;humidity
45357;BME280;31092;51.924;21.448;2022-11-20T00:00:54;100156.03;;;-7.43;100.00
45357;BME280;31092;51.924;21.448;2022-11-20T00:03:20;100283.84;;;-6.59;100.00
45357;BME280;31092;51.924;21.448;2022-11-20T00:05:46;100277.19;;;-6.67;100.00
45357;BME280;31092;51.924;21.448;2022-11-20T00:08:11;100171.38;;;-7.34;100.00
45357;BME280;31092;51.924;21.448;2022-11-20T00:10:38;100273.13;;;-6.76;100.00
45357;BME280;31092;51.924;21.448;2022-11-20T00:13:04;100285.97;;;-6.68;100.00
45357;BME280;31092;51.924;21.448;2022-11-20T00:15:30;100195.53;;;-7.26;100.00
45357;BME280;31092;51.924;21.448;2022-11-20T00:17:55;100266.84;;;-6.95;100.00
45357;BME280;31092;51.924;21.448;2022-11-20T00:20:21;100263.50;;;-6.99;100.00
45357;BME280;31092;51.924;21.448;2022-11-20T00:22:47;100268.44;;;-7.15;100.00
45357;BME280;31092;51.924;21.448;2022-11-20T00:25:12;100272.91;;;-7.18;100.00
45357;BME280;31092;51.924;21.448;2022-11-20T00:27:38;100176.69;;;-7.87;100.00
45357;BME280;31092;51.924;21.448;2022-11-20T00:30:05;100206.84;;;-7.75;100.00
45357;BME280;31092;51.924;21.448;2022-11-20T00:32:30;100289.09;;;-7.32;100.00
45357;BME280;31092;51.924;21.448;2022-11-20T00:34:56;100234.63;;;-7.73;100.00
45357;BME280;31092;51.924;21.448;2022-11-20T00:37:21;100098.69;;;-8.51;100.00
45357;BME280;31092;51.924;21.448;2022-11-20T00:39:47;100256.28;;;-7.69;100.00
45357;BME280;31092;51.924;21.448;2022-11-20T00:42:12;100150.97;;;-8.26;100.00
45357;BME280;31092;51.924;21.448;2022-11-20T00:44:38;100192.03;;;-8.03;100.00
45357;BME280;31092;51.924;21.448;2022-11-20T00:47:03;100266.56;;;-7.63;100.00
45357;BME280;31092;51.924;21.448;2022-11-20T00:49:29;100260.09;;;-7.79;100.00
45357;BME280;31092;51.924;21.448;2022-11-20T00:51:54;100124.16;;;-8.57;100.00
45357;BME280;31092;51.924;21.448;2022-11-20T00:54:20;100138.72;;;-8.50;100.00
45357;BME280;31092;51.924;21.448;2022-11-20T00:56:45;100151.78;;;-8.50;100.00
45357;BME280;31092;51.924;21.448;2022-11-20T00:59:11;100126.25;;;-8.69;100.00
45357;BME280;31092;51.924;21.448;2022-11-20T01:01:37;100249.47;;;-8.00;100.00
45357;BME280;31092;51.924;21.448;2022-11-20T01:04:03;100251.41;;;-8.06;100.00
45357;BME280;31092;51.924;21.448;2022-11-20T01:06:34;100255.78;;;-8.07;100.00
45357;BME280;31092;51.924;21.448;2022-11-20T01:09:04;100249.03;;;-8.14;100.00
45357;BME280;31092;51.924;21.448;2022-11-20T01:11:35;100242.19;;;-8.18;100.00
45357;BME280;31092;51.924;21.448;2022-11-20T01:14:03;100096.16;;;-9.08;100.00
45357;BME280;31092;51.924;21.448;2022-11-20T01:16:38;100103.94;;;-9.07;100.00
45357;BME280;31092;51.924;21.448;2022-11-20T01:19:16;100257.88;;;-8.18;100.00
45357;BME280;31092;51.924;21.448;2022-11-20T01:21:43;100272.31;;;-8.06;100.00
45357;BME280;31092;51.924;21.448;2022-11-20T01:24:14;100153.41;;;-8.74;100.00
45357;BME280;31092;51.924;21.448;2022-11-20T01:26:42;100214.94;;;-8.37;100.00
45357;BME280;31092;51.924;21.448;2022-11-20T01:29:14;100265.59;;;-8.15;100.00
45357;BME280;31092;51.924;21.448;2022-11-20T01:31:40;100260.28;;;-8.12;100.00
45357;BME280;31092;51.924;21.448;2022-11-20T01:34:10;100016.75;;;-9.57;100.00
45357;BME280;31092;51.924;21.448;2022-11-20T01:36:36;100119.28;;;-8.96;100.00
45357;BME280;31092;51.924;21.448;2022-11-20T01:39:09;100229.34;;;-8.26;100.00
45357;BME280;31092;51.924;21.448;2022-11-20T01:41:35;100238.19;;;-8.30;100.00
45357;BME280;31092;51.924;21.448;2022-11-20T01:44:22;100282.19;;;-8.16;100.00
45357;BME280;31092;51.924;21.448;2022-11-20T01:49:46;100256.72;;;-8.09;100.00
45357;BME280;31092;51.924;21.448;2022-11-20T01:52:18;100260.19;;;-8.09;100.00
45357;BME280;31092;51.924;21.448;2022-11-20T01:55:15;100208.91;;;-8.39;100.00
45357;BME280;31092;51.924;21.448;2022-11-20T01:57:44;100177.25;;;-8.57;100.00
45357;BME280;31092;51.924;21.448;2022-11-20T02:00:13;100162.75;;;-8.67;100.00
45357;BME280;31092;51.924;21.448;2022-11-20T02:02:41;100109.47;;;-8.89;100.00
45357;BME280;31092;51.924;21.448;2022-11-20T02:05:30;100246.28;;;-8.09;100.00
45357;BME280;31092;51.924;21.448;2022-11-20T02:07:59;100231.78;;;-8.20;100.00
45357;BME280;31092;51.924;21.448;2022-11-20T02:10:25;100221.66;;;-8.30;100.00
45357;BME280;31092;51.924;21.448;2022-11-20T02:12:52;100095.06;;;-9.01;100.00
45357;BME280;31092;51.924;21.448;2022-11-20T02:15:36;100140.44;;;-8.77;100.00
45357;BME280;31092;51.924;21.448;2022-11-20T02:18:02;100190.78;;;-8.44;100.00
45357;BME280;31092;51.924;21.448;2022-11-20T02:20:28;100120.75;;;-8.87;100.00
45357;BME280;31092;51.924;21.448;2022-11-20T02:22:57;100201.88;;;-8.37;100.00
45357;BME280;31092;51.924;21.448;2022-11-20T02:25:26;100188.25;;;-8.47;100.00
45357;BME280;31092;51.924;21.448;2022-11-20T02:27:52;100114.09;;;-8.98;100.00
45357;BME280;31092;51.924;21.448;2022-11-20T02:30:17;100220.88;;;-8.32;100.00
45357;BME280;31092;51.924;21.448;2022-11-20T02:32:43;100218.47;;;-8.38;100.00
45357;BME280;31092;51.924;21.448;2022-11-20T02:37:44;100191.88;;;-8.51;100.00
45357;BME280;31092;51.924;21.448;2022-11-20T02:40:13;100180.81;;;-8.59;100.00
45357;BME280;31092;51.924;21.448;2022-11-20T02:42:39;100199.53;;;-8.47;100.00
45357;BME280;31092;51.924;21.448;2022-11-20T02:45:05;100215.03;;;-8.40;100.00
45357;BME280;31092;51.924;21.448;2022-11-20T02:47:31;100075.78;;;-9.25;100.00
45357;BME280;31092;51.924;21.448;2022-11-20T02:49:57;100211.16;;;-8.55;100.00
45357;BME280;31092;51.924;21.448;2022-11-20T02:52:23;100212.66;;;-8.48;100.00
45357;BME280;31092;51.924;21.448;2022-11-20T02:54:48;100145.16;;;-8.90;100.00
45357;BME280;31092;51.924;21.448;2022-11-20T02:57:14;100207.69;;;-8.56;100.00
45357;BME280;31092;51.924;21.448;2022-11-20T02:59:40;100240.09;;;-8.35;100.00
45357;BME280;31092;51.924;21.448;2022-11-20T03:02:05;100192.03;;;-8.57;100.00
45357;BME280;31092;51.924;21.448;2022-11-20T03:04:31;100217.63;;;-8.39;100.00
45357;BME280;31092;51.924;21.448;2022-11-20T03:06:56;100137.34;;;-8.90;100.00
45357;BME280;31092;51.924;21.448;2022-11-20T03:09:22;100221.19;;;-8.41;100.00
45357;BME280;31092;51.924;21.448;2022-11-20T03:11:47;100241.56;;;-8.26;100.00
45357;BME280;31092;51.924;21.448;2022-11-20T03:14:13;100203.91;;;-8.47;100.00
45357;BME280;31092;51.924;21.448;2022-11-20T03:16:39;100169.34;;;-8.55;100.00
45357;BME280;31092;51.924;21.448;2022-11-20T03:19:05;100047.81;;;-9.20;100.00
45357;BME280;31092;51.924;21.448;2022-11-20T03:21:34;100032.41;;;-9.28;100.00
45357;BME280;31092;51.924;21.448;2022-11-20T03:24:00;100212.63;;;-8.20;100.00
45357;BME280;31092;51.924;21.448;2022-11-20T03:26:26;100175.56;;;-8.33;100.00
45357;BME280;31092;51.924;21.448;2022-11-20T03:29:00;100096.25;;;-8.83;100.00
45357;BME280;31092;51.924;21.448;2022-11-20T03:31:28;100127.97;;;-8.68;100.00
45357;BME280;31092;51.924;21.448;2022-11-20T03:33:56;100068.81;;;-8.97;100.00
45357;BME280;31092;51.924;21.448;2022-11-20T03:36:22;100194.94;;;-8.12;100.00
45357;BME280;31092;51.924;21.448;2022-11-20T03:38:48;100195.09;;;-8.16;100.00
45357;BME280;31092;51.924;21.448;2022-11-20T03:41:17;100059.88;;;-8.88;100.00
45357;BME280;31092;51.924;21.448;2022-11-20T03:43:47;99953.06;;;-9.49;100.00
45357;BME280;31092;51.924;21.448;2022-11-20T03:46:13;100022.19;;;-9.07;100.00
45357;BME280;31092;51.924;21.448;2022-11-20T03:48:38;100048.66;;;-8.92;100.00
45357;BME280;31092;51.924;21.448;2022-11-20T03:53:44;100165.41;;;-8.40;100.00
45357;BME280;31092;51.924;21.448;2022-11-20T03:56:11;99971.63;;;-9.59;100.00
45357;BME280;31092;51.924;21.448;2022-11-20T03:58:39;100186.91;;;-8.32;100.00
45357;BME280;31092;51.924;21.448;2022-11-20T04:01:07;100213.97;;;-8.35;100.00
45357;BME280;31092;51.924;21.448;2022-11-20T04:03:33;100237.19;;;-8.26;100.00
45357;BME280;31092;51.924;21.448;2022-11-20T04:06:08;100184.13;;;-8.54;100.00
45357;BME280;31092;51.924;21.448;2022-11-20T04:08:34;100221.56;;;-8.27;100.00
45357;BME280;31092;51.924;21.448;2022-11-20T04:11:13;100228.59;;;-8.29;100.00
45357;BME280;31092;51.924;21.448;2022-11-20T04:13:40;100031.97;;;-9.42;100.00
45357;BME280;31092;51.924;21.448;2022-11-20T04:16:07;100065.16;;;-9.19;100.00
45357;BME280;31092;51.924;21.448;2022-11-20T04:18:33;100083.16;;;-9.10;100.00
45357;BME280;31092;51.924;21.448;2022-11-20T04:21:01;100083.06;;;-9.07;100.00
45357;BME280;31092;51.924;21.448;2022-11-20T04:23:26;100095.66;;;-8.93;100.00
45357;BME280;31092;51.924;21.448;2022-11-20T04:25:52;100174.31;;;-8.46;100.00
45357;BME280;31092;51.924;21.448;2022-11-20T04:28:18;100203.47;;;-8.33;100.00
45357;BME280;31092;51.924;21.448;2022-11-20T04:30:44;100057.00;;;-9.08;100.00
45357;BME280;31092;51.924;21.448;2022-11-20T04:33:09;100157.56;;;-8.40;100.00
45357;BME280;31092;51.924;21.448;2022-11-20T04:35:36;100107.94;;;-8.67;100.00
45357;BME280;31092;51.924;21.448;2022-11-20T04:38:02;100146.09;;;-8.36;100.00
45357;BME280;31092;51.924;21.448;2022-11-20T04:40:28;100213.13;;;-8.07;100.00
45357;BME280;31092;51.924;21.448;2022-11-20T04:42:54;100097.34;;;-8.62;100.00
45357;BME280;31092;51.924;21.448;2022-11-20T04:45:21;100152.97;;;-8.34;100.00
45357;BME280;31092;51.924;21.448;2022-11-20T04:47:47;100071.50;;;-8.72;100.00
45357;BME280;31092;51.924;21.448;2022-11-20T04:50:12;100163.75;;;-8.16;100.00
45357;BME280;31092;51.924;21.448;2022-11-20T04:52:38;100162.72;;;-8.12;100.00
45357;BME280;31092;51.924;21.448;2022-11-20T04:55:04;100179.94;;;-8.05;100.00
45357;BME280;31092;51.924;21.448;2022-11-20T04:57:29;100056.56;;;-8.66;100.00
45357;BME280;31092;51.924;21.448;2022-11-20T04:59:55;99949.81;;;-9.29;100.00
45357;BME280;31092;51.924;21.448;2022-11-20T05:02:20;100188.34;;;-7.97;100.00
45357;BME280;31092;51.924;21.448;2022-11-20T05:04:46;100013.78;;;-8.89;100.00
45357;BME280;31092;51.924;21.448;2022-11-20T05:07:11;100143.53;;;-8.11;100.00
45357;BME280;31092;51.924;21.448;2022-11-20T05:09:37;100097.56;;;-8.42;100.00
45357;BME280;31092;51.924;21.448;2022-11-20T05:12:02;100160.78;;;-8.06;100.00
45357;BME280;31092;51.924;21.448;2022-11-20T05:14:28;100164.34;;;-8.08;100.00
45357;BME280;31092;51.924;21.448;2022-11-20T05:16:53;100045.72;;;-8.81;100.00
45357;BME280;31092;51.924;21.448;2022-11-20T05:19:19;99976.44;;;-9.46;100.00
45357;BME280;31092;51.924;21.448;2022-11-20T05:21:44;100137.97;;;-8.27;100.00
45357;BME280;31092;51.924;21.448;2022-11-20T05:24:10;100144.75;;;-8.22;100.00
45357;BME280;31092;51.924;21.448;2022-11-20T05:26:36;100131.28;;;-8.36;100.00
45357;BME280;31092;51.924;21.448;2022-11-20T05:29:01;100103.91;;;-8.51;100.00
45357;BME280;31092;51.924;21.448;2022-11-20T05:31:27;100024.66;;;-9.03;100.00
45357;BME280;31092;51.924;21.448;2022-11-20T05:33:52;100000.00;;;-9.21;100.00
45357;BME280;31092;51.924;21.448;2022-11-20T05:36:18;100168.56;;;-8.31;100.00
45357;BME280;31092;51.924;21.448;2022-11-20T05:38:44;100088.84;;;-8.69;100.00
45357;BME280;31092;51.924;21.448;2022-11-20T05:41:12;100119.69;;;-8.54;100.00
45357;BME280;31092;51.924;21.448;2022-11-20T05:43:40;100097.41;;;-8.64;100.00
45357;BME280;31092;51.924;21.448;2022-11-20T05:46:07;100103.38;;;-8.60;100.00
45357;BME280;31092;51.924;21.448;2022-11-20T05:48:36;100111.91;;;-8.55;100.00
45357;BME280;31092;51.924;21.448;2022-11-20T05:51:03;99971.91;;;-9.39;100.00
45357;BME280;31092;51.924;21.448;2022-11-20T05:53:29;100144.34;;;-8.36;100.00
45357;BME280;31092;51.924;21.448;2022-11-20T05:56:03;100076.09;;;-8.78;100.00
45357;BME280;31092;51.924;21.448;2022-11-20T05:58:30;100133.31;;;-8.44;100.00
45357;BME280;31092;51.924;21.448;2022-11-20T06:01:22;99951.25;;;-9.47;100.00
45357;BME280;31092;51.924;21.448;2022-11-20T06:03:48;100080.09;;;-8.68;100.00
45357;BME280;31092;51.924;21.448;2022-11-20T06:06:16;100100.53;;;-8.53;100.00
45357;BME280;31092;51.924;21.448;2022-11-20T06:08:43;100107.34;;;-8.49;100.00
45357;BME280;31092;51.924;21.448;2022-11-20T06:11:10;100105.53;;;-8.47;100.00
45357;BME280;31092;51.924;21.448;2022-11-20T06:13:36;100005.56;;;-9.03;100.00
45357;BME280;31092;51.924;21.448;2022-11-20T06:16:02;100026.84;;;-8.89;100.00
45357;BME280;31092;51.924;21.448;2022-11-20T06:18:29;100113.22;;;-8.42;100.00
45357;BME280;31092;51.924;21.448;2022-11-20T06:21:10;100115.97;;;-8.47;100.00
45357;BME280;31092;51.924;21.448;2022-11-20T06:23:36;100092.06;;;-8.61;100.00
45357;BME280;31092;51.924;21.448;2022-11-20T06:26:17;100128.75;;;-8.37;100.00
45357;BME280;31092;51.924;21.448;2022-11-20T06:28:42;100141.44;;;-8.27;100.00
45357;BME280;31092;51.924;21.448;2022-11-20T06:31:10;99941.56;;;-9.43;100.00
45357;BME280;31092;51.924;21.448;2022-11-20T06:33:36;100063.50;;;-8.65;100.00
45357;BME280;31092;51.924;21.448;2022-11-20T06:36:03;100094.88;;;-8.40;100.00
45357;BME280;31092;51.924;21.448;2022-11-20T06:38:29;100118.66;;;-8.23;100.00
45357;BME280;31092;51.924;21.448;2022-11-20T06:40:55;100103.84;;;-8.23;100.00
45357;BME280;31092;51.924;21.448;2022-11-20T06:43:22;100001.03;;;-8.72;100.00
45357;BME280;31092;51.924;21.448;2022-11-20T06:45:52;100101.41;;;-8.02;100.00
45357;BME280;31092;51.924;21.448;2022-11-20T06:48:21;100010.13;;;-8.57;100.00
45357;BME280;31092;51.924;21.448;2022-11-20T06:50:47;100102.75;;;-7.90;100.00
45357;BME280;31092;51.924;21.448;2022-11-20T06:53:13;100116.81;;;-7.68;100.00
45357;BME280;31092;51.924;21.448;2022-11-20T06:55:42;100107.84;;;-7.61;100.00
45357;BME280;31092;51.924;21.448;2022-11-20T06:58:09;99997.19;;;-8.11;100.00
45357;BME280;31092;51.924;21.448;2022-11-20T07:00:34;100003.59;;;-7.95;100.00
45357;BME280;31092;51.924;21.448;2022-11-20T07:03:03;99993.66;;;-7.85;100.00
45357;BME280;31092;51.924;21.448;2022-11-20T07:05:29;100070.91;;;-7.30;100.00
45357;BME280;31092;51.924;21.448;2022-11-20T07:07:56;100014.41;;;-7.57;100.00
45357;BME280;31092;51.924;21.448;2022-11-20T07:10:25;100074.75;;;-7.15;100.00
45357;BME280;31092;51.924;21.448;2022-11-20T07:13:07;100062.41;;;-7.11;100.00
45357;BME280;31092;51.924;21.448;2022-11-20T07:15:34;100087.44;;;-6.82;100.00
45357;BME280;31092;51.924;21.448;2022-11-20T07:18:00;100096.06;;;-6.58;100.00
45357;BME280;31092;51.924;21.448;2022-11-20T07:20:26;100106.84;;;-6.22;100.00
45357;BME280;31092;51.924;21.448;2022-11-20T07:22:55;100046.22;;;-6.35;100.00
45357;BME280;31092;51.924;21.448;2022-11-20T07:25:25;100019.22;;;-6.37;100.00
45357;BME280;31092;51.924;21.448;2022-11-20T07:27:51;99977.72;;;-6.47;100.00
45357;BME280;31092;51.924;21.448;2022-11-20T07:30:17;100028.06;;;-5.98;100.00
45357;BME280;31092;51.924;21.448;2022-11-20T07:32:46;100085.81;;;-5.40;100.00
45357;BME280;31092;51.924;21.448;2022-11-20T07:35:11;100093.44;;;-5.15;100.00
45357;BME280;31092;51.924;21.448;2022-11-20T07:37:37;99988.06;;;-5.64;100.00
45357;BME280;31092;51.924;21.448;2022-11-20T07:40:03;100046.03;;;-5.12;100.00
45357;BME280;31092;51.924;21.448;2022-11-20T07:42:28;100080.94;;;-4.72;100.00
45357;BME280;31092;51.924;21.448;2022-11-20T07:44:54;99972.09;;;-5.22;100.00
45357;BME280;31092;51.924;21.448;2022-11-20T07:47:19;100126.94;;;-4.27;100.00
45357;BME280;31092;51.924;21.448;2022-11-20T07:49:45;100082.56;;;-4.34;100.00
45357;BME280;31092;51.924;21.448;2022-11-20T07:52:10;100016.31;;;-4.59;100.00
45357;BME280;31092;51.924;21.448;2022-11-20T07:54:36;99973.75;;;-4.66;100.00
45357;BME280;31092;51.924;21.448;2022-11-20T07:57:01;100111.78;;;-3.70;100.00
45357;BME280;31092;51.924;21.448;2022-11-20T07:59:27;100107.75;;;-3.60;100.00
45357;BME280;31092;51.924;21.448;2022-11-20T08:01:52;100011.72;;;-4.02;100.00
45357;BME280;31092;51.924;21.448;2022-11-20T08:04:18;100021.28;;;-3.83;100.00
45357;BME280;31092;51.924;21.448;2022-11-20T08:06:43;100000.97;;;-3.81;100.00
45357;BME280;31092;51.924;21.448;2022-11-20T08:09:09;99983.94;;;-3.74;100.00
45357;BME280;31092;51.924;21.448;2022-11-20T08:11:34;100066.16;;;-3.20;100.00
45357;BME280;31092;51.924;21.448;2022-11-20T08:14:18;100025.47;;;-3.30;100.00
45357;BME280;31092;51.924;21.448;2022-11-20T08:16:46;100014.06;;;-3.31;100.00
45357;BME280;31092;51.924;21.448;2022-11-20T08:19:14;100009.41;;;-3.26;100.00
45357;BME280;31092;51.924;21.448;2022-11-20T08:21:40;100006.34;;;-3.18;100.00
45357;BME280;31092;51.924;21.448;2022-11-20T08:24:06;99987.81;;;-3.17;100.00
45357;BME280;31092;51.924;21.448;2022-11-20T08:26:33;99962.56;;;-3.21;100.00
45357;BME280;31092;51.924;21.448;2022-11-20T08:28:59;99992.22;;;-2.85;100.00
45357;BME280;31092;51.924;21.448;2022-11-20T08:31:26;99985.75;;;-2.80;100.00
45357;BME280;31092;51.924;21.448;2022-11-20T08:33:52;100005.81;;;-2.61;100.00
45357;BME280;31092;51.924;21.448;2022-11-20T08:36:18;99982.34;;;-2.66;100.00
45357;BME280;31092;51.924;21.448;2022-11-20T08:38:48;100036.94;;;-2.22;100.00
45357;BME280;31092;51.924;21.448;2022-11-20T08:41:14;99973.09;;;-2.43;100.00
45357;BME280;31092;51.924;21.448;2022-11-20T08:43:50;99990.63;;;-2.28;100.00
45357;BME280;31092;51.924;21.448;2022-11-20T08:46:16;99973.88;;;-2.27;100.00
45357;BME280;31092;51.924;21.448;2022-11-20T08:48:42;100054.84;;;-1.69;100.00
45357;BME280;31092;51.924;21.448;2022-11-20T08:51:08;99950.34;;;-2.15;100.00
45357;BME280;31092;51.924;21.448;2022-11-20T08:53:34;100000.91;;;-1.64;100.00
45357;BME280;31092;51.924;21.448;2022-11-20T08:56:00;99984.13;;;-1.63;100.00
45357;BME280;31092;51.924;21.448;2022-11-20T08:58:26;100053.53;;;-1.04;100.00
45357;BME280;31092;51.924;21.448;2022-11-20T09:00:51;99974.41;;;-1.49;100.00
45357;BME280;31092;51.924;21.448;2022-11-20T09:03:17;100035.97;;;-1.05;100.00
45357;BME280;31092;51.924;21.448;2022-11-20T09:05:42;99936.47;;;-1.48;100.00
45357;BME280;31092;51.924;21.448;2022-11-20T09:08:08;100015.16;;;-0.83;100.00
45357;BME280;31092;51.924;21.448;2022-11-20T09:10:34;99946.16;;;-1.19;100.00
45357;BME280;31092;51.924;21.448;2022-11-20T09:13:00;100028.88;;;-0.63;100.00
45357;BME280;31092;51.924;21.448;2022-11-20T09:15:27;100012.88;;;-0.75;100.00
45357;BME280;31092;51.924;21.448;2022-11-20T09:17:58;100032.63;;;-0.53;100.00
45357;BME280;31092;51.924;21.448;2022-11-20T09:20:24;100035.94;;;-0.37;100.00
45357;BME280;31092;51.924;21.448;2022-11-20T09:22:50;100026.31;;;-0.38;100.00
45357;BME280;31092;51.924;21.448;2022-11-20T09:25:16;100024.31;;;-0.34;100.00
45357;BME280;31092;51.924;21.448;2022-11-20T09:27:41;100019.28;;;-0.52;100.00
45357;BME280;31092;51.924;21.448;2022-11-20T09:30:09;99896.28;;;-1.11;100.00
45357;BME280;31092;51.924;21.448;2022-11-20T09:32:38;99984.59;;;-0.47;100.00
45357;BME280;31092;51.924;21.448;2022-11-20T09:35:04;99875.75;;;-0.81;100.00
45357;BME280;31092;51.924;21.448;2022-11-20T09:37:29;100006.72;;;0.05;100.00
45357;BME280;31092;51.924;21.448;2022-11-20T09:39:55;99901.53;;;-0.44;100.00
45357;BME280;31092;51.924;21.448;2022-11-20T09:42:30;100012.34;;;0.26;100.00
45357;BME280;31092;51.924;21.448;2022-11-20T09:50:58;99875.06;;;-0.06;100.00
45357;BME280;31092;51.924;21.448;2022-11-20T09:56:12;99977.03;;;0.51;100.00
45357;BME280;31092;51.924;21.448;2022-11-20T09:58:43;99866.28;;;-0.32;100.00
45357;BME280;31092;51.924;21.448;2022-11-20T10:01:21;99966.69;;;0.22;100.00
45357;BME280;31092;51.924;21.448;2022-11-20T10:04:03;99950.78;;;0.22;100.00
45357;BME280;31092;51.924;21.448;2022-11-20T10:06:33;99988.50;;;0.26;100.00
45357;BME280;31092;51.924;21.448;2022-11-20T10:19:38;99902.41;;;-0.31;100.00
45357;BME280;31092;51.924;21.448;2022-11-20T10:25:17;99991.88;;;0.28;100.00
45357;BME280;31092;51.924;21.448;2022-11-20T10:30:50;99964.03;;;0.22;100.00
45357;BME280;31092;51.924;21.448;2022-11-20T10:33:21;99928.03;;;-0.06;100.00
45357;BME280;31092;51.924;21.448;2022-11-20T10:36:16;99964.56;;;0.14;100.00
45357;BME280;31092;51.924;21.448;2022-11-20T10:38:54;99867.63;;;-0.65;100.00
45357;BME280;31092;51.924;21.448;2022-11-20T10:41:27;99962.13;;;-0.02;100.00
45357;BME280;31092;51.924;21.448;2022-11-20T10:44:19;99881.31;;;-0.45;100.00
45357;BME280;31092;51.924;21.448;2022-11-20T10:47:05;99932.88;;;-0.26;100.00
45357;BME280;31092;51.924;21.448;2022-11-20T10:49:32;99881.41;;;-0.60;100.00
45357;BME280;31092;51.924;21.448;2022-11-20T11:01:16;99946.94;;;-0.38;100.00
45357;BME280;31092;51.924;21.448;2022-11-20T11:03:42;99945.09;;;-0.50;100.00
45357;BME280;31092;51.924;21.448;2022-11-20T11:06:29;99953.28;;;-0.40;100.00
45357;BME280;31092;51.924;21.448;2022-11-20T11:09:01;99862.16;;;-1.02;100.00
45357;BME280;31092;51.924;21.448;2022-11-20T11:11:33;99828.53;;;-1.12;100.00
45357;BME280;31092;51.924;21.448;2022-11-20T11:14:25;99953.72;;;-0.34;100.00
45357;BME280;31092;51.924;21.448;2022-11-20T11:16:55;99923.09;;;-0.51;100.00
45357;BME280;31092;51.924;21.448;2022-11-20T11:19:21;99947.66;;;-0.36;100.00
45357;BME280;31092;51.924;21.448;2022-11-20T11:21:49;99929.88;;;-0.46;100.00
45357;BME280;31092;51.924;21.448;2022-11-20T11:24:33;99905.75;;;-0.55;100.00
45357;BME280;31092;51.924;21.448;2022-11-20T11:27:03;99864.34;;;-0.68;100.00
45357;BME280;31092;51.924;21.448;2022-11-20T11:29:32;99946.13;;;-0.13;100.00
45357;BME280;31092;51.924;21.448;2022-11-20T11:32:10;99942.72;;;-0.15;100.00
45357;BME280;31092;51.924;21.448;2022-11-20T11:34:36;99809.63;;;-0.93;100.00
45357;BME280;31092;51.924;21.448;2022-11-20T11:37:02;99843.00;;;-0.78;100.00
45357;BME280;31092;51.924;21.448;2022-11-20T11:39:31;99820.41;;;-0.97;100.00
45357;BME280;31092;51.924;21.448;2022-11-20T11:41:58;99836.81;;;-0.91;100.00
45357;BME280;31092;51.924;21.448;2022-11-20T11:44:31;99856.72;;;-0.73;100.00
45357;BME280;31092;51.924;21.448;2022-11-20T11:47:26;99804.69;;;-0.85;100.00
45357;BME280;31092;51.924;21.448;2022-11-20T11:50:08;99811.53;;;-0.83;100.00
45357;BME280;31092;51.924;21.448;2022-11-20T11:52:59;99922.06;;;-0.22;100.00
45357;BME280;31092;51.924;21.448;2022-11-20T11:55:40;99905.75;;;-0.29;100.00
45357;BME280;31092;51.924;21.448;2022-11-20T11:58:24;99924.41;;;-0.18;100.00
45357;BME280;31092;51.924;21.448;2022-11-20T12:03:40;99906.09;;;-0.34;100.00
45357;BME280;31092;51.924;21.448;2022-11-20T12:06:13;99942.53;;;-0.25;100.00
45357;BME280;31092;51.924;21.448;2022-11-20T12:12:04;99896.34;;;-0.33;100.00
45357;BME280;31092;51.924;21.448;2022-11-20T12:14:21;99888.63;;;-0.36;100.00
45357;BME280;31092;51.924;21.448;2022-11-20T12:16:52;99844.47;;;-0.61;100.00
45357;BME280;31092;51.924;21.448;2022-11-20T12:19:18;99877.91;;;-0.47;100.00
45357;BME280;31092;51.924;21.448;2022-11-20T12:21:47;99898.47;;;-0.38;100.00
45357;BME280;31092;51.924;21.448;2022-11-20T12:38:54;99899.88;;;-0.73;100.00
45357;BME280;31092;51.924;21.448;2022-11-20T12:41:40;99903.16;;;-0.82;100.00
45357;BME280;31092;51.924;21.448;2022-11-20T12:53:41;99911.94;;;-0.81;100.00
45357;BME280;31092;51.924;21.448;2022-11-20T12:59:46;99816.16;;;-1.39;100.00
45357;BME280;31092;51.924;21.448;2022-11-20T13:02:35;99871.34;;;-1.07;100.00
45357;BME280;31092;51.924;21.448;2022-11-20T13:05:13;99892.00;;;-1.00;100.00
45357;BME280;31092;51.924;21.448;2022-11-20T13:07:42;99865.91;;;-1.18;100.00
45357;BME280;31092;51.924;21.448;2022-11-20T13:10:21;99779.41;;;-1.69;100.00
45357;BME280;31092;51.924;21.448;2022-11-20T13:13:17;99876.94;;;-1.12;100.00
45357;BME280;31092;51.924;21.448;2022-11-20T13:15:56;99888.66;;;-1.16;100.00
45357;BME280;31092;51.924;21.448;2022-11-20T13:18:25;99880.38;;;-1.24;100.00
45357;BME280;31092;51.924;21.448;2022-11-20T13:20:50;99775.78;;;-1.81;100.00
45357;BME280;31092;51.924;21.448;2022-11-20T13:23:42;99875.94;;;-1.24;100.00
45357;BME280;31092;51.924;21.448;2022-11-20T13:26:20;99866.91;;;-1.34;100.00
45357;BME280;31092;51.924;21.448;2022-11-20T13:28:58;99879.09;;;-1.31;100.00
45357;BME280;31092;51.924;21.448;2022-11-20T13:31:33;99803.81;;;-1.65;100.00
45357;BME280;31092;51.924;21.448;2022-11-20T13:34:00;99749.69;;;-2.00;100.00
45357;BME280;31092;51.924;21.448;2022-11-20T13:36:28;99860.28;;;-1.27;100.00
45357;BME280;31092;51.924;21.448;2022-11-20T13:38:55;99823.00;;;-1.49;100.00
45357;BME280;31092;51.924;21.448;2022-11-20T13:41:25;99871.50;;;-1.23;100.00
45357;BME280;31092;51.924;21.448;2022-11-20T13:43:59;99778.59;;;-1.84;100.00
45357;BME280;31092;51.924;21.448;2022-11-20T13:46:36;99871.81;;;-1.28;100.00
45357;BME280;31092;51.924;21.448;2022-11-20T13:49:08;99868.09;;;-1.25;100.00
45357;BME280;31092;51.924;21.448;2022-11-20T13:51:46;99834.50;;;-1.50;100.00
45357;BME280;31092;51.924;21.448;2022-11-20T14:00:21;99772.41;;;-1.97;100.00
45357;BME280;31092;51.924;21.448;2022-11-20T14:02:59;99859.06;;;-1.62;100.00
45357;BME280;31092;51.924;21.448;2022-11-20T14:05:27;99869.34;;;-1.58;100.00